sensor_id;sensor_type;location;lat;lon;timestamp;temperature;humidity
48162;DHT22;33950;48.154;16.316;2023-04-01T00:00:11;11.40;86.80
48162;DHT22;33950;48.154;16.316;2023-04-01T00:02:58;11.40;86.50
48162;DHT22;33950;48.154;16.316;2023-04-01T00:05:45;11.40;86.40
48162;DHT22;33950;48.154;16.316;2023-04-01T00:08:31;11.50;86.30
48162;DHT22;33950;48.154;16.316;2023-04-01T00:11:19;11.40;86.10
48162;DHT22;33950;48.154;16.316;2023-04-01T00:14:05;11.50;86.20
48162;DHT22;33950;48.154;16.316;2023-04-01T00:16:52;11.40;86.20
48162;DHT22;33950;48.154;16.316;2023-04-01T00:19:38;11.40;86.20
48162;DHT22;33950;48.154;16.316;2023-04-01T00:22:25;11.40;86.30
48162;DHT22;33950;48.154;16.316;2023-04-01T00:25:12;11.30;86.30
48162;DHT22;33950;48.154;16.316;2023-04-01T00:27:59;11.40;86.20
48162;DHT22;33950;48.154;16.316;2023-04-01T00:30:46;11.40;86.10
48162;DHT22;33950;48.154;16.316;2023-04-01T00:33:33;11.40;85.90
48162;DHT22;33950;48.154;16.316;2023-04-01T00:36:20;11.40;85.90
48162;DHT22;33950;48.154;16.316;2023-04-01T00:39:09;11.50;85.80
48162;DHT22;33950;48.154;16.316;2023-04-01T00:41:56;11.50;86.20
48162;DHT22;33950;48.154;16.316;2023-04-01T00:44:45;11.40;85.80
48162;DHT22;33950;48.154;16.316;2023-04-01T00:47:31;11.50;85.80
48162;DHT22;33950;48.154;16.316;2023-04-01T00:50:18;11.50;85.80
48162;DHT22;33950;48.154;16.316;2023-04-01T00:53:05;11.60;85.80
48162;DHT22;33950;48.154;16.316;2023-04-01T00:55:58;11.50;85.90
48162;DHT22;33950;48.154;16.316;2023-04-01T00:58:48;11.50;86.10
48162;DHT22;33950;48.154;16.316;2023-04-01T01:01:37;11.50;86.20
48162;DHT22;33950;48.154;16.316;2023-04-01T01:04:24;11.50;86.00
48162;DHT22;33950;48.154;16.316;2023-04-01T01:07:20;11.40;86.10
48162;DHT22;33950;48.154;16.316;2023-04-01T01:10:10;11.40;86.00
48162;DHT22;33950;48.154;16.316;2023-04-01T01:13:04;11.40;85.80
48162;DHT22;33950;48.154;16.316;2023-04-01T01:15:57;11.40;85.70
48162;DHT22;33950;48.154;16.316;2023-04-01T01:18:50;11.40;85.70
48162;DHT22;33950;48.154;16.316;2023-04-01T01:21:53;11.40;85.70
48162;DHT22;33950;48.154;16.316;2023-04-01T01:24:58;11.40;85.60
48162;DHT22;33950;48.154;16.316;2023-04-01T01:27:56;11.40;85.80
48162;DHT22;33950;48.154;16.316;2023-04-01T01:30:49;11.40;85.90
48162;DHT22;33950;48.154;16.316;2023-04-01T01:33:51;11.40;86.10
48162;DHT22;33950;48.154;16.316;2023-04-01T01:36:41;11.30;86.20
48162;DHT22;33950;48.154;16.316;2023-04-01T01:39:31;11.30;86.40
48162;DHT22;33950;48.154;16.316;2023-04-01T01:42:18;11.30;86.50
48162;DHT22;33950;48.154;16.316;2023-04-01T01:45:07;11.40;86.40
48162;DHT22;33950;48.154;16.316;2023-04-01T01:47:55;11.40;86.60
48162;DHT22;33950;48.154;16.316;2023-04-01T01:50:43;11.40;87.20
48162;DHT22;33950;48.154;16.316;2023-04-01T01:53:32;11.40;87.30
48162;DHT22;33950;48.154;16.316;2023-04-01T01:56:20;11.30;87.80
48162;DHT22;33950;48.154;16.316;2023-04-01T01:59:10;11.30;88.30
48162;DHT22;33950;48.154;16.316;2023-04-01T02:01:58;11.40;88.40
48162;DHT22;33950;48.154;16.316;2023-04-01T02:04:46;11.30;88.40
48162;DHT22;33950;48.154;16.316;2023-04-01T02:07:35;11.30;88.40
48162;DHT22;33950;48.154;16.316;2023-04-01T02:10:25;11.30;88.20
48162;DHT22;33950;48.154;16.316;2023-04-01T02:13:17;11.30;88.10
48162;DHT22;33950;48.154;16.316;2023-04-01T02:16:12;11.30;88.00
48162;DHT22;33950;48.154;16.316;2023-04-01T02:18:59;11.30;88.00
48162;DHT22;33950;48.154;16.316;2023-04-01T02:21:47;11.30;87.60
48162;DHT22;33950;48.154;16.316;2023-04-01T02:24:36;11.40;87.30
48162;DHT22;33950;48.154;16.316;2023-04-01T02:27:24;11.40;87.00
48162;DHT22;33950;48.154;16.316;2023-04-01T02:30:14;11.30;86.90
48162;DHT22;33950;48.154;16.316;2023-04-01T02:33:01;11.30;86.60
48162;DHT22;33950;48.154;16.316;2023-04-01T02:35:48;11.30;86.50
48162;DHT22;33950;48.154;16.316;2023-04-01T02:38:35;11.30;86.80
48162;DHT22;33950;48.154;16.316;2023-04-01T02:41:22;11.20;86.70
48162;DHT22;33950;48.154;16.316;2023-04-01T02:44:10;11.20;86.60
48162;DHT22;33950;48.154;16.316;2023-04-01T02:46:56;11.20;86.70
48162;DHT22;33950;48.154;16.316;2023-04-01T02:49:42;11.20;87.50
48162;DHT22;33950;48.154;16.316;2023-04-01T02:52:29;11.30;86.80
48162;DHT22;33950;48.154;16.316;2023-04-01T02:55:16;11.30;86.80
48162;DHT22;33950;48.154;16.316;2023-04-01T02:58:02;11.30;87.00
48162;DHT22;33950;48.154;16.316;2023-04-01T03:00:50;11.20;87.70
48162;DHT22;33950;48.154;16.316;2023-04-01T03:03:36;11.10;88.20
48162;DHT22;33950;48.154;16.316;2023-04-01T03:06:22;11.00;88.40
48162;DHT22;33950;48.154;16.316;2023-04-01T03:09:08;11.00;88.90
48162;DHT22;33950;48.154;16.316;2023-04-01T03:11:54;10.90;89.40
48162;DHT22;33950;48.154;16.316;2023-04-01T03:14:41;10.80;89.80
48162;DHT22;33950;48.154;16.316;2023-04-01T03:17:28;10.80;90.30
48162;DHT22;33950;48.154;16.316;2023-04-01T03:20:15;10.80;90.10
48162;DHT22;33950;48.154;16.316;2023-04-01T03:23:01;10.80;90.00
48162;DHT22;33950;48.154;16.316;2023-04-01T03:25:47;10.80;90.00
48162;DHT22;33950;48.154;16.316;2023-04-01T03:28:33;10.70;89.80
48162;DHT22;33950;48.154;16.316;2023-04-01T03:31:20;10.80;90.00
48162;DHT22;33950;48.154;16.316;2023-04-01T03:34:07;10.70;89.70
48162;DHT22;33950;48.154;16.316;2023-04-01T03:36:54;10.70;89.70
48162;DHT22;33950;48.154;16.316;2023-04-01T03:39:40;10.80;89.50
48162;DHT22;33950;48.154;16.316;2023-04-01T03:42:26;10.80;89.60
48162;DHT22;33950;48.154;16.316;2023-04-01T03:45:13;10.80;89.40
48162;DHT22;33950;48.154;16.316;2023-04-01T03:47:59;10.80;89.60
48162;DHT22;33950;48.154;16.316;2023-04-01T03:50:46;10.70;89.50
48162;DHT22;33950;48.154;16.316;2023-04-01T03:53:33;10.70;89.80
48162;DHT22;33950;48.154;16.316;2023-04-01T03:56:19;10.50;89.90
48162;DHT22;33950;48.154;16.316;2023-04-01T03:59:06;10.60;89.70
48162;DHT22;33950;48.154;16.316;2023-04-01T04:01:53;10.50;89.90
48162;DHT22;33950;48.154;16.316;2023-04-01T04:04:39;10.60;89.60
48162;DHT22;33950;48.154;16.316;2023-04-01T04:07:26;10.60;89.60
48162;DHT22;33950;48.154;16.316;2023-04-01T04:10:13;10.70;89.00
48162;DHT22;33950;48.154;16.316;2023-04-01T04:12:59;10.70;88.90
48162;DHT22;33950;48.154;16.316;2023-04-01T04:15:45;10.70;88.60
48162;DHT22;33950;48.154;16.316;2023-04-01T04:18:31;10.70;88.50
48162;DHT22;33950;48.154;16.316;2023-04-01T04:21:17;10.70;88.40
48162;DHT22;33950;48.154;16.316;2023-04-01T04:24:05;10.70;88.40
48162;DHT22;33950;48.154;16.316;2023-04-01T04:26:51;10.60;88.50
48162;DHT22;33950;48.154;16.316;2023-04-01T04:29:37;10.70;88.60
48162;DHT22;33950;48.154;16.316;2023-04-01T04:32:23;10.60;88.60
48162;DHT22;33950;48.154;16.316;2023-04-01T04:35:10;10.60;88.60
48162;DHT22;33950;48.154;16.316;2023-04-01T04:37:56;10.60;88.70
48162;DHT22;33950;48.154;16.316;2023-04-01T04:40:43;10.60;88.60
48162;DHT22;33950;48.154;16.316;2023-04-01T04:43:30;10.70;88.80
48162;DHT22;33950;48.154;16.316;2023-04-01T04:46:16;10.60;88.80
48162;DHT22;33950;48.154;16.316;2023-04-01T04:49:02;10.60;88.90
48162;DHT22;33950;48.154;16.316;2023-04-01T04:51:48;10.60;89.00
48162;DHT22;33950;48.154;16.316;2023-04-01T04:54:34;10.60;89.20
48162;DHT22;33950;48.154;16.316;2023-04-01T04:57:22;10.60;89.20
48162;DHT22;33950;48.154;16.316;2023-04-01T05:00:09;10.60;89.00
48162;DHT22;33950;48.154;16.316;2023-04-01T05:02:56;10.50;89.40
48162;DHT22;33950;48.154;16.316;2023-04-01T05:05:48;10.50;89.60
48162;DHT22;33950;48.154;16.316;2023-04-01T05:08:35;10.40;89.60
48162;DHT22;33950;48.154;16.316;2023-04-01T05:11:21;10.50;89.70
48162;DHT22;33950;48.154;16.316;2023-04-01T05:14:13;10.40;89.80
48162;DHT22;33950;48.154;16.316;2023-04-01T05:16:59;10.40;89.80
48162;DHT22;33950;48.154;16.316;2023-04-01T05:19:45;10.40;90.00
48162;DHT22;33950;48.154;16.316;2023-04-01T05:22:31;10.40;90.00
48162;DHT22;33950;48.154;16.316;2023-04-01T05:25:18;10.40;90.10
48162;DHT22;33950;48.154;16.316;2023-04-01T05:28:04;10.40;90.30
48162;DHT22;33950;48.154;16.316;2023-04-01T05:30:51;10.40;90.30
48162;DHT22;33950;48.154;16.316;2023-04-01T05:33:38;10.40;90.30
48162;DHT22;33950;48.154;16.316;2023-04-01T05:36:24;10.50;90.20
48162;DHT22;33950;48.154;16.316;2023-04-01T05:39:10;10.40;90.30
48162;DHT22;33950;48.154;16.316;2023-04-01T05:41:56;10.50;90.50
48162;DHT22;33950;48.154;16.316;2023-04-01T05:44:42;10.50;90.10
48162;DHT22;33950;48.154;16.316;2023-04-01T05:47:30;10.60;90.10
48162;DHT22;33950;48.154;16.316;2023-04-01T05:50:16;10.60;90.20
48162;DHT22;33950;48.154;16.316;2023-04-01T05:53:02;10.70;90.00
48162;DHT22;33950;48.154;16.316;2023-04-01T05:55:48;10.70;90.00
48162;DHT22;33950;48.154;16.316;2023-04-01T05:58:34;10.80;90.00
48162;DHT22;33950;48.154;16.316;2023-04-01T06:01:21;10.80;90.00
48162;DHT22;33950;48.154;16.316;2023-04-01T06:04:12;10.90;90.00
48162;DHT22;33950;48.154;16.316;2023-04-01T06:06:58;10.90;90.00
48162;DHT22;33950;48.154;16.316;2023-04-01T06:09:45;11.00;89.90
48162;DHT22;33950;48.154;16.316;2023-04-01T06:12:43;11.00;90.00
48162;DHT22;33950;48.154;16.316;2023-04-01T06:15:36;11.00;90.10
48162;DHT22;33950;48.154;16.316;2023-04-01T06:18:49;11.00;90.00
48162;DHT22;33950;48.154;16.316;2023-04-01T06:22:04;11.00;90.10
48162;DHT22;33950;48.154;16.316;2023-04-01T06:25:16;11.10;90.10
48162;DHT22;33950;48.154;16.316;2023-04-01T06:28:36;11.10;90.00
48162;DHT22;33950;48.154;16.316;2023-04-01T06:31:38;11.10;90.00
48162;DHT22;33950;48.154;16.316;2023-04-01T06:34:48;11.10;90.10
48162;DHT22;33950;48.154;16.316;2023-04-01T06:37:58;11.10;90.10
48162;DHT22;33950;48.154;16.316;2023-04-01T06:41:25;11.00;90.10
48162;DHT22;33950;48.154;16.316;2023-04-01T06:44:16;11.20;90.10
48162;DHT22;33950;48.154;16.316;2023-04-01T06:47:22;11.20;90.10
48162;DHT22;33950;48.154;16.316;2023-04-01T06:50:19;11.20;90.10
48162;DHT22;33950;48.154;16.316;2023-04-01T06:53:12;11.20;89.90
48162;DHT22;33950;48.154;16.316;2023-04-01T06:56:06;11.10;90.10
48162;DHT22;33950;48.154;16.316;2023-04-01T06:58:56;11.00;90.00
48162;DHT22;33950;48.154;16.316;2023-04-01T07:01:47;11.00;90.00
48162;DHT22;33950;48.154;16.316;2023-04-01T07:04:37;11.10;89.90
48162;DHT22;33950;48.154;16.316;2023-04-01T07:07:30;11.20;89.50
48162;DHT22;33950;48.154;16.316;2023-04-01T07:10:33;11.30;89.30
48162;DHT22;33950;48.154;16.316;2023-04-01T07:13:23;11.40;88.70
48162;DHT22;33950;48.154;16.316;2023-04-01T07:16:12;11.50;88.70
48162;DHT22;33950;48.154;16.316;2023-04-01T07:19:04;11.50;87.70
48162;DHT22;33950;48.154;16.316;2023-04-01T07:21:54;11.40;87.30
48162;DHT22;33950;48.154;16.316;2023-04-01T07:24:44;11.30;88.10
48162;DHT22;33950;48.154;16.316;2023-04-01T07:27:31;11.30;88.00
48162;DHT22;33950;48.154;16.316;2023-04-01T07:30:20;11.20;88.10
48162;DHT22;33950;48.154;16.316;2023-04-01T07:33:13;11.30;88.30
48162;DHT22;33950;48.154;16.316;2023-04-01T07:36:06;11.30;88.30
48162;DHT22;33950;48.154;16.316;2023-04-01T07:38:59;11.30;88.10
48162;DHT22;33950;48.154;16.316;2023-04-01T07:41:52;11.40;87.90
48162;DHT22;33950;48.154;16.316;2023-04-01T07:44:49;11.50;88.00
48162;DHT22;33950;48.154;16.316;2023-04-01T07:47:54;11.60;87.30
48162;DHT22;33950;48.154;16.316;2023-04-01T07:50:48;11.70;86.60
48162;DHT22;33950;48.154;16.316;2023-04-01T07:53:40;11.80;86.50
48162;DHT22;33950;48.154;16.316;2023-04-01T07:56:32;11.90;86.80
48162;DHT22;33950;48.154;16.316;2023-04-01T07:59:27;12.10;86.40
48162;DHT22;33950;48.154;16.316;2023-04-01T08:02:25;12.10;86.00
48162;DHT22;33950;48.154;16.316;2023-04-01T08:05:19;12.10;85.50
48162;DHT22;33950;48.154;16.316;2023-04-01T08:08:16;12.10;85.80
48162;DHT22;33950;48.154;16.316;2023-04-01T08:11:12;12.20;85.60
48162;DHT22;33950;48.154;16.316;2023-04-01T08:14:05;12.10;85.10
48162;DHT22;33950;48.154;16.316;2023-04-01T08:16:57;12.10;85.40
48162;DHT22;33950;48.154;16.316;2023-04-01T08:19:59;12.10;86.00
48162;DHT22;33950;48.154;16.316;2023-04-01T08:22:51;12.10;85.60
48162;DHT22;33950;48.154;16.316;2023-04-01T08:25:42;12.10;86.20
48162;DHT22;33950;48.154;16.316;2023-04-01T08:28:33;12.20;85.20
48162;DHT22;33950;48.154;16.316;2023-04-01T08:31:25;12.20;85.30
48162;DHT22;33950;48.154;16.316;2023-04-01T08:34:19;12.40;85.50
48162;DHT22;33950;48.154;16.316;2023-04-01T08:37:11;12.60;84.00
48162;DHT22;33950;48.154;16.316;2023-04-01T08:40:02;12.60;83.90
48162;DHT22;33950;48.154;16.316;2023-04-01T08:43:05;12.70;84.20
48162;DHT22;33950;48.154;16.316;2023-04-01T08:46:12;12.80;84.20
48162;DHT22;33950;48.154;16.316;2023-04-01T08:49:11;12.80;83.10
48162;DHT22;33950;48.154;16.316;2023-04-01T08:52:18;12.80;83.20
48162;DHT22;33950;48.154;16.316;2023-04-01T08:55:30;12.80;82.90
48162;DHT22;33950;48.154;16.316;2023-04-01T08:58:35;12.70;82.40
48162;DHT22;33950;48.154;16.316;2023-04-01T09:01:42;12.50;82.70
48162;DHT22;33950;48.154;16.316;2023-04-01T09:04:41;12.60;83.40
48162;DHT22;33950;48.154;16.316;2023-04-01T09:07:40;12.60;83.60
48162;DHT22;33950;48.154;16.316;2023-04-01T09:10:59;12.70;83.60
48162;DHT22;33950;48.154;16.316;2023-04-01T09:14:06;13.00;83.60
48162;DHT22;33950;48.154;16.316;2023-04-01T09:17:29;13.00;81.70
48162;DHT22;33950;48.154;16.316;2023-04-01T09:20:44;13.00;81.70
48162;DHT22;33950;48.154;16.316;2023-04-01T09:24:06;13.00;81.60
48162;DHT22;33950;48.154;16.316;2023-04-01T09:27:04;12.90;81.10
48162;DHT22;33950;48.154;16.316;2023-04-01T09:36:43;13.20;81.90
48162;DHT22;33950;48.154;16.316;2023-04-01T09:39:36;13.20;81.30
48162;DHT22;33950;48.154;16.316;2023-04-01T09:42:43;13.00;81.70
48162;DHT22;33950;48.154;16.316;2023-04-01T09:45:37;13.00;81.60
48162;DHT22;33950;48.154;16.316;2023-04-01T09:48:42;13.20;81.80
48162;DHT22;33950;48.154;16.316;2023-04-01T09:51:36;13.60;79.90
48162;DHT22;33950;48.154;16.316;2023-04-01T09:54:39;13.60;79.40
48162;DHT22;33950;48.154;16.316;2023-04-01T10:01:01;13.40;78.80
48162;DHT22;33950;48.154;16.316;2023-04-01T10:04:31;13.20;79.20
48162;DHT22;33950;48.154;16.316;2023-04-01T10:08:05;13.20;79.50
48162;DHT22;33950;48.154;16.316;2023-04-01T10:14:43;13.60;79.20
48162;DHT22;33950;48.154;16.316;2023-04-01T10:21:24;13.70;77.70
48162;DHT22;33950;48.154;16.316;2023-04-01T10:28:01;13.30;79.40
48162;DHT22;33950;48.154;16.316;2023-04-01T10:34:39;13.00;79.80
48162;DHT22;33950;48.154;16.316;2023-04-01T10:37:54;13.00;79.80
48162;DHT22;33950;48.154;16.316;2023-04-01T10:41:14;13.20;79.80
48162;DHT22;33950;48.154;16.316;2023-04-01T10:44:45;13.30;79.40
48162;DHT22;33950;48.154;16.316;2023-04-01T10:51:10;13.90;78.70
48162;DHT22;33950;48.154;16.316;2023-04-01T10:54:20;14.00;77.40
48162;DHT22;33950;48.154;16.316;2023-04-01T10:57:19;14.00;77.20
48162;DHT22;33950;48.154;16.316;2023-04-01T11:00:40;14.20;76.80
48162;DHT22;33950;48.154;16.316;2023-04-01T11:04:03;14.20;75.80
48162;DHT22;33950;48.154;16.316;2023-04-01T11:10:47;14.60;75.40
48162;DHT22;33950;48.154;16.316;2023-04-01T11:14:15;14.50;76.10
48162;DHT22;33950;48.154;16.316;2023-04-01T11:17:34;14.40;76.10
48162;DHT22;33950;48.154;16.316;2023-04-01T11:23:53;14.70;76.80
48162;DHT22;33950;48.154;16.316;2023-04-01T11:26:51;15.00;75.90
48162;DHT22;33950;48.154;16.316;2023-04-01T11:30:05;15.30;74.70
48162;DHT22;33950;48.154;16.316;2023-04-01T11:33:02;15.70;74.50
48162;DHT22;33950;48.154;16.316;2023-04-01T11:36:00;15.60;73.80
48162;DHT22;33950;48.154;16.316;2023-04-01T11:38:58;15.40;73.20
48162;DHT22;33950;48.154;16.316;2023-04-01T11:41:52;15.00;73.50
48162;DHT22;33950;48.154;16.316;2023-04-01T11:44:48;14.70;74.70
48162;DHT22;33950;48.154;16.316;2023-04-01T11:47:55;14.70;75.00
48162;DHT22;33950;48.154;16.316;2023-04-01T11:50:58;14.60;74.50
48162;DHT22;33950;48.154;16.316;2023-04-01T11:53:53;14.40;75.00
48162;DHT22;33950;48.154;16.316;2023-04-01T11:56:59;14.60;74.80
48162;DHT22;33950;48.154;16.316;2023-04-01T12:00:01;14.80;74.00
48162;DHT22;33950;48.154;16.316;2023-04-01T12:03:01;15.10;74.10
48162;DHT22;33950;48.154;16.316;2023-04-01T16:27:48;15.50;73.60
48162;DHT22;33950;48.154;16.316;2023-04-01T16:30:37;15.40;73.90
48162;DHT22;33950;48.154;16.316;2023-04-01T16:33:35;15.30;74.50
48162;DHT22;33950;48.154;16.316;2023-04-01T16:36:28;15.10;74.90
48162;DHT22;33950;48.154;16.316;2023-04-01T16:39:22;14.90;75.70
48162;DHT22;33950;48.154;16.316;2023-04-01T16:42:24;14.80;76.10
48162;DHT22;33950;48.154;16.316;2023-04-01T16:45:30;14.70;76.50
48162;DHT22;33950;48.154;16.316;2023-04-01T16:48:21;14.60;77.00
48162;DHT22;33950;48.154;16.316;2023-04-01T16:51:12;14.60;77.60
48162;DHT22;33950;48.154;16.316;2023-04-01T16:54:02;14.50;78.30
48162;DHT22;33950;48.154;16.316;2023-04-01T16:56:55;14.40;79.50
48162;DHT22;33950;48.154;16.316;2023-04-01T16:59:47;14.30;78.10
48162;DHT22;33950;48.154;16.316;2023-04-01T17:02:42;14.10;78.20
48162;DHT22;33950;48.154;16.316;2023-04-01T17:05:42;13.90;78.60
48162;DHT22;33950;48.154;16.316;2023-04-01T17:08:39;13.60;79.90
48162;DHT22;33950;48.154;16.316;2023-04-01T17:11:35;13.30;81.00
48162;DHT22;33950;48.154;16.316;2023-04-01T17:14:27;13.20;81.60
48162;DHT22;33950;48.154;16.316;2023-04-01T17:17:27;13.20;82.20
48162;DHT22;33950;48.154;16.316;2023-04-01T17:20:29;13.10;82.80
48162;DHT22;33950;48.154;16.316;2023-04-01T17:23:23;12.90;83.50
48162;DHT22;33950;48.154;16.316;2023-04-01T17:26:20;12.80;84.00
48162;DHT22;33950;48.154;16.316;2023-04-01T17:29:18;12.80;84.30
48162;DHT22;33950;48.154;16.316;2023-04-01T17:32:11;12.70;84.30
48162;DHT22;33950;48.154;16.316;2023-04-01T17:35:04;12.70;84.70
48162;DHT22;33950;48.154;16.316;2023-04-01T17:38:05;12.50;85.20
48162;DHT22;33950;48.154;16.316;2023-04-01T17:41:00;12.40;85.70
48162;DHT22;33950;48.154;16.316;2023-04-01T17:43:54;12.40;85.90
48162;DHT22;33950;48.154;16.316;2023-04-01T17:46:56;12.20;86.40
48162;DHT22;33950;48.154;16.316;2023-04-01T17:49:50;12.10;86.80
48162;DHT22;33950;48.154;16.316;2023-04-01T17:52:42;12.10;86.80
48162;DHT22;33950;48.154;16.316;2023-04-01T17:55:54;12.10;87.00
48162;DHT22;33950;48.154;16.316;2023-04-01T17:58:45;12.00;87.20
48162;DHT22;33950;48.154;16.316;2023-04-01T18:01:42;12.00;87.30
48162;DHT22;33950;48.154;16.316;2023-04-01T18:04:51;12.00;87.20
48162;DHT22;33950;48.154;16.316;2023-04-01T18:08:01;11.90;87.50
48162;DHT22;33950;48.154;16.316;2023-04-01T18:10:57;11.80;87.80
48162;DHT22;33950;48.154;16.316;2023-04-01T18:14:18;11.80;87.80
48162;DHT22;33950;48.154;16.316;2023-04-01T18:17:21;11.80;87.90
48162;DHT22;33950;48.154;16.316;2023-04-01T18:20:24;11.60;88.50
48162;DHT22;33950;48.154;16.316;2023-04-01T18:23:20;11.70;88.50
48162;DHT22;33950;48.154;16.316;2023-04-01T18:26:12;11.50;88.40
48162;DHT22;33950;48.154;16.316;2023-04-01T18:29:10;11.50;88.70
48162;DHT22;33950;48.154;16.316;2023-04-01T18:35:19;11.60;89.10
48162;DHT22;33950;48.154;16.316;2023-04-01T18:38:12;11.50;89.20
48162;DHT22;33950;48.154;16.316;2023-04-01T18:41:13;11.50;89.30
48162;DHT22;33950;48.154;16.316;2023-04-01T18:44:16;11.50;89.30
48162;DHT22;33950;48.154;16.316;2023-04-01T18:47:19;11.60;89.70
48162;DHT22;33950;48.154;16.316;2023-04-01T18:50:15;11.60;89.40
48162;DHT22;33950;48.154;16.316;2023-04-01T18:53:15;11.60;89.50
48162;DHT22;33950;48.154;16.316;2023-04-01T18:56:05;11.60;89.50
48162;DHT22;33950;48.154;16.316;2023-04-01T18:58:57;11.60;90.10
48162;DHT22;33950;48.154;16.316;2023-04-01T19:01:52;11.40;90.20
48162;DHT22;33950;48.154;16.316;2023-04-01T19:04:45;11.40;90.30
48162;DHT22;33950;48.154;16.316;2023-04-01T19:07:46;11.30;90.40
48162;DHT22;33950;48.154;16.316;2023-04-01T19:10:42;11.30;90.60
48162;DHT22;33950;48.154;16.316;2023-04-01T19:13:38;11.20;90.70
48162;DHT22;33950;48.154;16.316;2023-04-01T19:16:37;11.10;90.70
48162;DHT22;33950;48.154;16.316;2023-04-01T19:19:47;11.20;90.60
48162;DHT22;33950;48.154;16.316;2023-04-01T19:22:51;11.20;90.40
48162;DHT22;33950;48.154;16.316;2023-04-01T19:25:43;11.20;90.40
48162;DHT22;33950;48.154;16.316;2023-04-01T19:28:39;11.10;90.30
48162;DHT22;33950;48.154;16.316;2023-04-01T19:31:37;11.00;90.40
48162;DHT22;33950;48.154;16.316;2023-04-01T19:34:29;11.00;90.50
48162;DHT22;33950;48.154;16.316;2023-04-01T19:37:27;11.00;90.50
48162;DHT22;33950;48.154;16.316;2023-04-01T19:40:27;11.00;90.60
48162;DHT22;33950;48.154;16.316;2023-04-01T19:46:28;10.90;90.70
48162;DHT22;33950;48.154;16.316;2023-04-01T19:49:37;10.90;90.80
48162;DHT22;33950;48.154;16.316;2023-04-01T19:52:30;10.90;90.80
48162;DHT22;33950;48.154;16.316;2023-04-01T19:55:25;10.80;90.80
48162;DHT22;33950;48.154;16.316;2023-04-01T19:58:20;10.70;91.00
48162;DHT22;33950;48.154;16.316;2023-04-01T20:01:14;10.80;91.00
48162;DHT22;33950;48.154;16.316;2023-04-01T20:04:05;10.80;91.00
48162;DHT22;33950;48.154;16.316;2023-04-01T20:06:58;10.80;91.10
48162;DHT22;33950;48.154;16.316;2023-04-01T20:09:52;10.80;91.00
48162;DHT22;33950;48.154;16.316;2023-04-01T20:12:47;10.80;91.00
48162;DHT22;33950;48.154;16.316;2023-04-01T20:15:37;10.90;90.90
48162;DHT22;33950;48.154;16.316;2023-04-01T20:18:26;10.90;90.90
48162;DHT22;33950;48.154;16.316;2023-04-01T20:21:30;10.90;90.90
48162;DHT22;33950;48.154;16.316;2023-04-01T20:24:22;10.90;91.00
48162;DHT22;33950;48.154;16.316;2023-04-01T20:27:09;10.80;90.90
48162;DHT22;33950;48.154;16.316;2023-04-01T20:30:29;10.80;91.00
48162;DHT22;33950;48.154;16.316;2023-04-01T20:33:42;10.80;91.00
48162;DHT22;33950;48.154;16.316;2023-04-01T20:36:36;10.70;91.10
48162;DHT22;33950;48.154;16.316;2023-04-01T20:39:41;10.80;91.00
48162;DHT22;33950;48.154;16.316;2023-04-01T20:42:45;10.80;91.00
48162;DHT22;33950;48.154;16.316;2023-04-01T20:45:38;10.80;91.00
48162;DHT22;33950;48.154;16.316;2023-04-01T20:52:20;10.70;91.10
48162;DHT22;33950;48.154;16.316;2023-04-01T20:58:36;10.80;91.10
48162;DHT22;33950;48.154;16.316;2023-04-01T21:01:34;10.80;91.10
48162;DHT22;33950;48.154;16.316;2023-04-01T21:04:27;10.70;91.10
48162;DHT22;33950;48.154;16.316;2023-04-01T21:07:21;10.70;91.20
48162;DHT22;33950;48.154;16.316;2023-04-01T21:10:28;10.70;91.20
48162;DHT22;33950;48.154;16.316;2023-04-01T21:13:28;10.70;91.30
48162;DHT22;33950;48.154;16.316;2023-04-01T21:16:41;10.80;91.10
48162;DHT22;33950;48.154;16.316;2023-04-01T21:19:40;10.80;91.40
48162;DHT22;33950;48.154;16.316;2023-04-01T21:22:40;10.80;91.00
48162;DHT22;33950;48.154;16.316;2023-04-01T21:25:40;10.80;91.00
48162;DHT22;33950;48.154;16.316;2023-04-01T21:28:45;10.80;91.00
48162;DHT22;33950;48.154;16.316;2023-04-01T21:31:49;10.90;91.10
48162;DHT22;33950;48.154;16.316;2023-04-01T21:34:43;10.90;91.20
48162;DHT22;33950;48.154;16.316;2023-04-01T21:37:44;10.80;91.80
48162;DHT22;33950;48.154;16.316;2023-04-01T21:40:49;10.90;91.50
48162;DHT22;33950;48.154;16.316;2023-04-01T21:43:54;10.80;91.60
48162;DHT22;33950;48.154;16.316;2023-04-01T21:47:02;10.80;91.70
48162;DHT22;33950;48.154;16.316;2023-04-01T21:50:15;10.80;91.70
48162;DHT22;33950;48.154;16.316;2023-04-01T21:56:57;10.80;91.70
48162;DHT22;33950;48.154;16.316;2023-04-01T22:00:17;10.80;91.80
48162;DHT22;33950;48.154;16.316;2023-04-01T22:03:35;10.80;91.90
48162;DHT22;33950;48.154;16.316;2023-04-01T22:06:29;10.80;91.80
48162;DHT22;33950;48.154;16.316;2023-04-01T22:09:22;10.90;91.90
48162;DHT22;33950;48.154;16.316;2023-04-01T22:12:15;10.70;91.90
48162;DHT22;33950;48.154;16.316;2023-04-01T22:15:09;10.70;92.10
48162;DHT22;33950;48.154;16.316;2023-04-01T22:18:03;10.70;92.20
48162;DHT22;33950;48.154;16.316;2023-04-01T22:20:56;10.70;92.20
48162;DHT22;33950;48.154;16.316;2023-04-01T22:23:56;10.70;92.10
48162;DHT22;33950;48.154;16.316;2023-04-01T22:26:47;10.60;92.20
48162;DHT22;33950;48.154;16.316;2023-04-01T22:29:41;10.60;92.20
48162;DHT22;33950;48.154;16.316;2023-04-01T22:32:31;10.70;92.40
48162;DHT22;33950;48.154;16.316;2023-04-01T22:35:29;10.70;92.20
48162;DHT22;33950;48.154;16.316;2023-04-01T22:38:32;10.70;92.40
48162;DHT22;33950;48.154;16.316;2023-04-01T22:41:32;10.70;92.00
48162;DHT22;33950;48.154;16.316;2023-04-01T22:44:33;10.60;91.90
48162;DHT22;33950;48.154;16.316;2023-04-01T22:47:32;10.60;91.80
48162;DHT22;33950;48.154;16.316;2023-04-01T22:50:29;10.80;91.80
48162;DHT22;33950;48.154;16.316;2023-04-01T22:53:19;10.70;91.60
48162;DHT22;33950;48.154;16.316;2023-04-01T22:56:12;10.70;91.60
48162;DHT22;33950;48.154;16.316;2023-04-01T22:59:06;10.70;91.80
48162;DHT22;33950;48.154;16.316;2023-04-01T23:01:57;10.70;91.70
48162;DHT22;33950;48.154;16.316;2023-04-01T23:04:53;10.70;91.70
48162;DHT22;33950;48.154;16.316;2023-04-01T23:07:45;10.70;91.80
48162;DHT22;33950;48.154;16.316;2023-04-01T23:10:42;10.80;91.70
48162;DHT22;33950;48.154;16.316;2023-04-01T23:13:31;10.70;91.40
48162;DHT22;33950;48.154;16.316;2023-04-01T23:16:21;10.70;91.40
48162;DHT22;33950;48.154;16.316;2023-04-01T23:19:13;10.80;91.30
48162;DHT22;33950;48.154;16.316;2023-04-01T23:22:12;10.80;91.30